SBGW Informações do Aeroporto

Informações da Pista
Pista 2 Comprimento 5089 ft Largura 98 ft
Elevação ft Limite ft Heading 0
Pista 20 Comprimento 5089 ft Largura 98 ft
Elevação ft Limite ft Heading 0
Frequências do Aeroporto
Tipo APP Nome GUARA APP Frequência 122.8 MHZ
Tipo TWR Nome GUARA TWR Frequência 125.9 MHZ
Navaids do Aeroporto
Tipo NDB Nome Guaratingueta Frequência 275 KHZ
Informações meteorológicas do aeroporto e NOTAM
ADDS - METARS form results

(2335 UTC 03 July 2022)
Data provider http://aviationweather.gov/metar/data/
 
Forecast for: SBGW (GUARATINGUETA (M, BR)
Text: TAF SBGW 031500Z 0318/0406 05005KT CAVOK TX26/0318Z TN10/0406Z RMK P FM
Forecast period: 1800 UTC 03 July 2022 to 0600 UTC 04 July 2022
Forecast type: FROM: standard forecast or significant change
Winds: from the NE (50 degrees) at 6 MPH (5 knots; 2.6 m/s)
Visibility: 6 or more miles (10+ km)
Ceiling: unknown
Clouds: missing
Weather: no significant weather forecast for this period
Text:
Forecast period: 1800 UTC 03 July 2022 to 0600 UTC 04 July 2022
Forecast type: FROM: standard forecast or significant change
Visibility: missing
Ceiling: unknown
Clouds: missing
Weather: no significant weather forecast for this period